Terminal Aerodrome Forecast
Issued by NWS

Home | Current Version | Previous Version | Text Only | Print | Product List | Glossary On
Versions: 1 2 3 4 5 6 7 8 9 10 11 12 13 14 15 16 17
000
FTUS41 KALY 280522
TAFPSF
TAF
KPSF 280522Z 2806/2906 32009KT P6SM SCT045
      TEMPO 2806/2810 SCT020 SCT030 BKN045
     FM281300 34011G22KT P6SM SCT045
     FM281900 34013G25KT P6SM SCT045
     FM290000 28007KT P6SM BKN040=

USA.gov is the U.S. government's official web portal to all federal, state and local government web resources and services.